Terminal Aerodrome Forecast
Issued by NWS Shreveport, LA

Home | Current Version | Previous Version | Text Only | Print | Product List | Glossary On
Versions: 1 2 3 4 5 6 7 8 9 10 11 12 13 14
000
FTUS44 KSHV 260542
TAFMLU
TAF
KMLU 260542Z 2606/2706 19008KT P6SM SCT280
      TEMPO 2612/2614 18008KT BKN020 BKN280
     FM261500 20014G20KT P6SM BKN035 BKN150
     FM262100 20016G23KT P6SM BKN050
     FM270100 19012KT P6SM SCT050
     FM270500 19010KT P6SM OVC015=

USA.gov is the U.S. government's official web portal to all federal, state and local government web resources and services.